createdAt,value
2019-02-24T00:01:23.636Z,45.10
2019-02-24T00:03:54.691Z,44.50
2019-02-24T00:06:24.521Z,44.90
2019-02-24T00:08:54.069Z,45.00
2019-02-24T00:11:23.576Z,45.40
2019-02-24T00:13:53.122Z,44.60
2019-02-24T00:16:22.677Z,44.10
2019-02-24T00:18:52.240Z,43.80
2019-02-24T00:21:21.693Z,43.80
2019-02-24T00:23:51.140Z,43.60
2019-02-24T00:26:20.703Z,42.60
2019-02-24T00:28:50.303Z,43.00
2019-02-24T00:31:19.851Z,43.20
2019-02-24T00:33:49.321Z,43.20
2019-02-24T00:36:19.017Z,43.40
2019-02-24T00:38:48.569Z,42.30
2019-02-24T00:41:18.148Z,42.40
2019-02-24T00:43:47.697Z,41.90
2019-02-24T00:46:17.238Z,42.20
2019-02-24T00:48:46.885Z,42.20
2019-02-24T00:51:16.405Z,43.00
2019-02-24T00:53:45.877Z,42.90
2019-02-24T00:56:15.467Z,43.40
2019-02-24T00:58:45.000Z,44.30
2019-02-24T01:01:14.478Z,43.80
2019-02-24T01:03:44.032Z,43.90
2019-02-24T01:06:13.659Z,43.40
2019-02-24T01:08:43.150Z,45.60
2019-02-24T01:11:12.640Z,44.60
2019-02-24T01:13:42.176Z,45.00
2019-02-24T01:16:11.646Z,45.20
2019-02-24T01:18:41.180Z,45.70
2019-02-24T01:21:10.831Z,46.70
2019-02-24T01:23:40.361Z,47.10
2019-02-24T01:26:09.849Z,46.60
2019-02-24T01:28:39.534Z,47.40
2019-02-24T01:31:09.081Z,47.20
2019-02-24T01:33:38.589Z,47.40
2019-02-24T01:36:08.176Z,47.80
2019-02-24T01:38:37.707Z,47.90
2019-02-24T01:41:07.227Z,48.80
2019-02-24T01:43:36.775Z,49.30
2019-02-24T01:46:06.237Z,49.90
2019-02-24T01:48:35.853Z,49.80
2019-02-24T01:51:05.539Z,49.60
2019-02-24T01:53:35.019Z,50.40
2019-02-24T01:56:04.956Z,51.00
2019-02-24T01:58:35.353Z,50.60
2019-02-24T02:01:05.241Z,50.80
2019-02-24T02:03:34.729Z,51.00
2019-02-24T02:06:04.375Z,51.30
2019-02-24T02:08:33.908Z,53.10
2019-02-24T02:11:03.414Z,51.40
2019-02-24T02:13:33.278Z,52.10
2019-02-24T02:16:02.815Z,51.80
2019-02-24T02:18:32.348Z,50.80
2019-02-24T02:21:01.983Z,50.20
2019-02-24T02:23:31.466Z,50.00
2019-02-24T02:26:01.129Z,49.90
2019-02-24T02:28:30.589Z,50.70
2019-02-24T02:31:00.109Z,50.90
2019-02-24T02:33:29.614Z,52.50
2019-02-24T02:35:59.224Z,52.10
2019-02-24T02:38:28.693Z,51.70
2019-02-24T02:40:58.234Z,52.30
2019-02-24T02:43:27.766Z,55.20
2019-02-24T02:45:57.223Z,53.70
2019-02-24T02:48:26.733Z,54.50
2019-02-24T02:50:56.717Z,56.00
2019-02-24T02:53:26.189Z,55.70
2019-02-24T02:55:56.048Z,57.30
2019-02-24T02:58:25.830Z,55.40
2019-02-24T03:00:55.476Z,56.20
2019-02-24T03:03:24.883Z,56.60
2019-02-24T03:06:13.300Z,55.20
2019-02-24T03:08:46.327Z,57.50
2019-02-24T03:11:16.414Z,56.60
2019-02-24T03:13:45.948Z,57.20
2019-02-24T03:16:17.351Z,57.20
2019-02-24T03:18:46.820Z,58.50
2019-02-24T03:21:16.348Z,58.00
2019-02-24T03:23:45.836Z,57.10
2019-02-24T03:26:15.392Z,58.00
2019-02-24T03:28:44.981Z,57.90
2019-02-24T03:31:14.425Z,61.60
2019-02-24T03:33:44.910Z,63.00
2019-02-24T03:36:14.644Z,60.10
2019-02-24T03:38:44.226Z,60.40
2019-02-24T03:41:13.690Z,59.60
2019-02-24T03:43:43.182Z,64.80
2019-02-24T03:46:12.583Z,62.00
2019-02-24T03:48:42.110Z,62.90
2019-02-24T03:51:12.021Z,67.00
2019-02-24T03:53:41.605Z,65.30
2019-02-24T03:56:11.295Z,67.70
2019-02-24T03:58:40.810Z,64.00
2019-02-24T04:01:10.260Z,67.30
2019-02-24T04:03:39.962Z,65.80
2019-02-24T04:06:09.417Z,68.40
2019-02-24T04:08:38.884Z,68.50
2019-02-24T04:11:08.805Z,69.10
2019-02-24T04:13:38.278Z,67.70
2019-02-24T04:16:08.052Z,66.90
2019-02-24T04:18:37.390Z,70.20
2019-02-24T04:21:06.929Z,65.20
2019-02-24T04:23:36.594Z,64.20
2019-02-24T04:26:06.138Z,66.90
2019-02-24T04:28:35.847Z,65.30
2019-02-24T04:31:05.344Z,68.10
2019-02-24T04:33:34.830Z,66.90
2019-02-24T04:36:04.390Z,68.30
2019-02-24T04:38:33.900Z,69.90
2019-02-24T04:41:03.412Z,69.30
2019-02-24T04:43:32.919Z,74.00
2019-02-24T04:46:02.596Z,71.30
2019-02-24T04:48:32.047Z,71.60
2019-02-24T04:51:01.561Z,74.60
2019-02-24T04:53:31.168Z,72.30
2019-02-24T04:56:00.655Z,74.50
2019-02-24T04:58:30.195Z,73.60
2019-02-24T05:01:00.705Z,74.60
2019-02-24T05:03:30.204Z,75.40
2019-02-24T05:05:59.672Z,74.70
2019-02-24T05:08:29.205Z,74.50
2019-02-24T05:10:58.742Z,75.30
2019-02-24T05:13:28.204Z,77.60
2019-02-24T05:15:57.852Z,76.30
2019-02-24T05:18:27.291Z,78.80
2019-02-24T05:20:56.746Z,77.30
2019-02-24T05:23:26.237Z,79.20
2019-02-24T05:25:55.887Z,78.10
2019-02-24T05:28:25.414Z,83.80
2019-02-24T05:30:54.935Z,81.40
2019-02-24T05:33:24.494Z,83.80
2019-02-24T05:35:54.009Z,82.80
2019-02-24T05:38:23.536Z,82.20
2019-02-24T05:40:53.134Z,84.10
2019-02-24T05:43:23.616Z,81.70
2019-02-24T05:45:53.181Z,82.00
2019-02-24T05:48:22.790Z,82.50
2019-02-24T05:50:52.313Z,83.00
2019-02-24T05:53:21.829Z,83.60
2019-02-24T05:55:51.376Z,84.10
2019-02-24T05:58:20.879Z,83.60
2019-02-24T06:00:50.314Z,85.60
2019-02-24T06:03:19.913Z,84.50
2019-02-24T06:05:49.385Z,86.00
2019-02-24T06:08:18.896Z,89.30
2019-02-24T06:10:48.518Z,90.70
2019-02-24T06:13:18.017Z,87.60
2019-02-24T06:15:47.476Z,87.90
2019-02-24T06:18:56.084Z,88.90
2019-02-24T06:21:25.599Z,89.50
2019-02-24T06:23:54.973Z,88.70
2019-02-24T06:27:00.101Z,88.90
2019-02-24T06:29:29.503Z,89.70
2019-02-24T06:31:58.897Z,90.10
2019-02-24T06:35:04.261Z,90.90
2019-02-24T06:37:33.905Z,91.90
2019-02-24T06:40:39.104Z,93.40
2019-02-24T06:43:10.945Z,96.40
2019-02-24T06:46:18.074Z,96.40
2019-02-24T06:48:48.512Z,94.50
2019-02-24T06:51:18.382Z,95.10
2019-02-24T06:53:47.713Z,93.70
2019-02-24T06:56:17.080Z,93.30
2019-02-24T06:58:47.494Z,93.00
2019-02-24T07:01:17.247Z,92.90
2019-02-24T07:03:47.104Z,93.00
2019-02-24T07:06:16.747Z,94.10
2019-02-24T07:08:46.721Z,91.70
2019-02-24T07:11:16.468Z,91.40
2019-02-24T07:14:21.997Z,87.40
2019-02-24T07:16:51.659Z,86.60
2019-02-24T07:19:21.393Z,90.20
2019-02-24T07:21:51.057Z,90.50
2019-02-24T07:24:20.707Z,87.10
2019-02-24T07:26:50.308Z,85.90
2019-02-24T07:29:19.871Z,88.80
2019-02-24T07:31:49.783Z,86.20
2019-02-24T07:34:19.281Z,86.70
2019-02-24T07:36:48.956Z,84.20
2019-02-24T07:39:18.564Z,86.10
2019-02-24T07:41:48.127Z,79.40
2019-02-24T07:44:17.727Z,75.80
2019-02-24T07:46:47.389Z,75.50
2019-02-24T07:49:17.354Z,73.80
2019-02-24T07:51:46.893Z,72.30
2019-02-24T07:54:16.643Z,68.10
2019-02-24T07:56:46.215Z,68.10
2019-02-24T07:59:16.065Z,69.90
2019-02-24T08:01:45.622Z,68.10
2019-02-24T08:04:15.212Z,66.90
2019-02-24T08:06:44.819Z,64.60
2019-02-24T08:09:14.406Z,63.20
2019-02-24T08:11:44.095Z,62.00
2019-02-24T08:14:13.733Z,62.70
2019-02-24T08:16:43.442Z,62.80
2019-02-24T08:19:13.054Z,63.10
2019-02-24T08:21:42.656Z,62.20
2019-02-24T08:24:12.194Z,62.70
2019-02-24T08:26:41.803Z,61.00
2019-02-24T08:29:11.724Z,59.40
2019-02-24T08:31:41.276Z,57.70
2019-02-24T08:34:11.028Z,57.50
2019-02-24T08:36:40.584Z,54.70
2019-02-24T08:39:10.525Z,52.50
2019-02-24T08:41:40.158Z,50.70
2019-02-24T08:44:09.881Z,49.40
2019-02-24T08:46:39.448Z,49.70
2019-02-24T08:49:09.376Z,47.60
2019-02-24T08:51:38.904Z,46.80
2019-02-24T08:54:08.632Z,45.90
2019-02-24T08:56:38.221Z,42.90
2019-02-24T08:59:08.127Z,42.40
2019-02-24T09:01:37.658Z,42.20
2019-02-24T09:04:07.211Z,42.20
2019-02-24T09:06:36.795Z,43.00
2019-02-24T09:09:06.419Z,42.10
2019-02-24T09:11:36.054Z,41.60
2019-02-24T09:14:05.597Z,40.50
2019-02-24T09:16:35.106Z,40.20
2019-02-24T09:19:04.733Z,40.00
2019-02-24T09:21:34.284Z,39.20
2019-02-24T09:24:03.797Z,37.30
2019-02-24T09:26:33.654Z,38.30
2019-02-24T09:29:03.154Z,39.00
2019-02-24T09:31:32.742Z,37.90
2019-02-24T09:34:02.338Z,37.00
2019-02-24T09:36:32.066Z,38.50
2019-02-24T09:39:01.577Z,39.90
2019-02-24T09:41:31.091Z,39.40
2019-02-24T09:44:01.230Z,38.00
2019-02-24T09:46:31.293Z,38.70
2019-02-24T09:49:00.899Z,38.00
2019-02-24T09:51:48.449Z,37.90
2019-02-24T09:54:18.209Z,37.70
2019-02-24T09:56:48.701Z,38.50
2019-02-24T09:59:18.318Z,38.70
2019-02-24T10:01:47.839Z,37.20
2019-02-24T10:04:17.423Z,38.00
2019-02-24T10:06:47.056Z,38.40
2019-02-24T10:09:16.581Z,38.80
2019-02-24T10:11:46.209Z,37.70
2019-02-24T10:14:15.953Z,36.40
2019-02-24T10:16:45.912Z,37.00
2019-02-24T10:19:15.739Z,36.10
2019-02-24T10:21:45.400Z,36.80
2019-02-24T10:24:33.140Z,36.40
2019-02-24T10:27:02.887Z,36.30
2019-02-24T10:29:33.771Z,35.00
2019-02-24T10:32:03.590Z,36.00
2019-02-24T10:34:33.367Z,34.80
2019-02-24T10:37:03.318Z,35.90
2019-02-24T10:39:33.048Z,35.30
2019-02-24T10:42:02.756Z,35.50
2019-02-24T10:44:32.817Z,34.30
2019-02-24T10:47:02.575Z,36.60
2019-02-24T10:49:32.301Z,36.30
2019-02-24T10:52:02.491Z,36.10
2019-02-24T10:54:32.565Z,37.40
2019-02-24T10:57:02.235Z,37.30
2019-02-24T10:59:32.237Z,36.50
2019-02-24T11:02:02.010Z,35.20
2019-02-24T11:04:31.722Z,37.20
2019-02-24T11:07:01.461Z,37.70
2019-02-24T11:09:31.142Z,39.30
2019-02-24T11:12:00.622Z,37.10
2019-02-24T11:14:30.300Z,38.50
2019-02-24T11:16:59.979Z,37.20
2019-02-24T11:19:29.794Z,37.00
2019-02-24T11:21:59.414Z,37.80
2019-02-24T11:24:29.470Z,38.20
2019-02-24T11:26:59.501Z,38.50
2019-02-24T11:29:29.182Z,37.90
2019-02-24T11:31:58.855Z,40.10
2019-02-24T11:34:28.466Z,39.60
2019-02-24T11:36:58.238Z,38.40
2019-02-24T11:39:27.905Z,38.60
2019-02-24T11:41:57.782Z,37.90
2019-02-24T11:44:27.345Z,37.40
2019-02-24T11:46:57.214Z,38.80
2019-02-24T11:49:26.764Z,40.60
2019-02-24T11:52:03.675Z,40.90
2019-02-24T11:54:27.791Z,41.90
2019-02-24T11:56:57.687Z,41.80
2019-02-24T11:59:27.526Z,41.30
2019-02-24T12:01:57.639Z,41.90
2019-02-24T12:04:27.411Z,41.60
2019-02-24T12:06:57.071Z,43.00
2019-02-24T12:09:26.793Z,43.00
2019-02-24T12:11:56.343Z,42.70
2019-02-24T12:14:26.451Z,43.10
2019-02-24T12:16:56.026Z,42.70
2019-02-24T12:19:25.684Z,43.20
2019-02-24T12:21:55.280Z,42.90
2019-02-24T12:24:25.242Z,42.40
2019-02-24T12:30:02.671Z,41.50
2019-02-24T12:32:32.179Z,40.70
2019-02-24T12:35:01.891Z,39.60
2019-02-24T12:37:31.549Z,39.60
2019-02-24T12:40:01.506Z,39.40
2019-02-24T12:42:31.049Z,38.90
2019-02-24T12:45:00.615Z,39.00
2019-02-24T12:47:30.119Z,39.60
2019-02-24T12:50:03.270Z,39.00
2019-02-24T12:52:49.089Z,38.90
2019-02-24T12:55:18.664Z,38.60
2019-02-24T12:57:48.391Z,37.80
2019-02-24T13:00:19.311Z,38.00
2019-02-24T13:02:50.430Z,37.80
2019-02-24T13:05:20.188Z,37.80
2019-02-24T13:07:49.961Z,38.00
2019-02-24T13:10:19.694Z,38.40
2019-02-24T13:12:49.883Z,37.90
2019-02-24T13:15:19.672Z,37.30
2019-02-24T13:17:49.386Z,37.70
2019-02-24T13:20:19.335Z,37.60
2019-02-24T13:22:49.177Z,37.90
2019-02-24T13:25:18.969Z,38.50
2019-02-24T13:27:48.740Z,37.90
2019-02-24T13:30:18.445Z,37.70
2019-02-24T13:32:48.238Z,37.10
2019-02-24T13:35:18.089Z,36.90
2019-02-24T13:37:48.001Z,37.00
2019-02-24T13:40:18.393Z,37.40
2019-02-24T13:42:48.104Z,36.20
2019-02-24T13:45:17.794Z,35.70
2019-02-24T13:47:47.448Z,35.80
2019-02-24T13:50:17.001Z,35.40
2019-02-24T13:52:46.792Z,35.60
2019-02-24T13:55:34.595Z,36.10
2019-02-24T13:58:04.306Z,35.30
2019-02-24T14:00:34.086Z,34.80
2019-02-24T14:03:03.933Z,35.00
2019-02-24T14:05:35.847Z,35.00
2019-02-24T14:08:05.581Z,35.20
2019-02-24T14:10:35.374Z,35.00
2019-02-24T14:13:05.051Z,34.50
2019-02-24T14:15:34.654Z,34.90
2019-02-24T14:18:04.586Z,35.70
2019-02-24T14:20:34.244Z,34.90
2019-02-24T14:23:04.029Z,35.00
2019-02-24T14:25:33.796Z,34.90
2019-02-24T14:28:03.625Z,35.60
2019-02-24T14:30:33.318Z,35.60
2019-02-24T14:33:40.905Z,35.70
2019-02-24T14:36:28.557Z,35.70
2019-02-24T14:38:58.499Z,35.00
2019-02-24T14:41:28.180Z,35.30
2019-02-24T14:43:58.002Z,35.30
2019-02-24T14:46:27.669Z,35.80
2019-02-24T14:48:57.745Z,35.60
2019-02-24T14:51:27.460Z,35.50
2019-02-24T14:53:57.344Z,35.10
2019-02-24T14:56:27.076Z,34.40
2019-02-24T14:58:59.051Z,33.80
2019-02-24T15:01:29.468Z,32.00
2019-02-24T15:03:59.221Z,31.70
2019-02-24T15:06:28.888Z,30.70
2019-02-24T15:08:58.561Z,31.00
2019-02-24T15:11:28.714Z,30.70
2019-02-24T15:13:58.584Z,29.50
2019-02-24T15:16:28.779Z,30.30
2019-02-24T15:18:58.496Z,29.60
2019-02-24T15:21:28.187Z,29.30
2019-02-24T15:23:57.938Z,29.10
2019-02-24T15:26:29.264Z,29.90
2019-02-24T15:28:59.546Z,30.60
2019-02-24T15:31:29.223Z,30.00
2019-02-24T15:33:59.001Z,29.40
2019-02-24T15:36:28.738Z,29.40
2019-02-24T15:38:58.763Z,29.50
2019-02-24T15:41:29.945Z,30.50
2019-02-24T15:44:00.089Z,30.60
2019-02-24T15:46:29.910Z,30.80
2019-02-24T15:48:59.613Z,29.80
2019-02-24T15:51:29.933Z,30.10
2019-02-24T15:53:59.796Z,31.00
2019-02-24T15:56:31.630Z,31.10
2019-02-24T15:59:01.312Z,30.90
2019-02-24T16:01:31.358Z,31.10
2019-02-24T16:04:01.073Z,31.30
2019-02-24T16:06:37.034Z,31.10
2019-02-24T16:09:21.763Z,31.90
2019-02-24T16:12:31.691Z,32.50
2019-02-24T16:15:01.572Z,31.50
2019-02-24T16:17:31.386Z,32.20
2019-02-24T16:20:20.050Z,32.90
2019-02-24T16:22:50.028Z,33.60
2019-02-24T16:25:20.129Z,34.10
2019-02-24T16:27:49.912Z,33.10
2019-02-24T16:31:13.022Z,34.00
2019-02-24T16:33:43.739Z,34.40
2019-02-24T16:36:13.500Z,33.90
2019-02-24T16:38:43.105Z,34.60
2019-02-24T16:41:12.745Z,36.80
2019-02-24T16:44:00.214Z,37.00
2019-02-24T16:46:30.151Z,37.70
2019-02-24T16:48:59.777Z,38.40
2019-02-24T16:51:29.356Z,38.70
2019-02-24T16:53:59.006Z,38.90
2019-02-24T16:56:48.609Z,39.20
2019-02-24T16:59:18.420Z,39.20
2019-02-24T17:01:48.009Z,38.90
2019-02-24T17:04:17.952Z,39.10
2019-02-24T17:06:49.782Z,39.70
2019-02-24T17:09:19.528Z,40.30
2019-02-24T17:11:49.194Z,40.00
2019-02-24T17:14:18.823Z,40.30
2019-02-24T17:16:48.390Z,40.60
2019-02-24T17:19:18.172Z,40.40
2019-02-24T17:21:47.868Z,41.00
2019-02-24T17:24:17.564Z,41.40
2019-02-24T17:26:47.194Z,40.90
2019-02-24T17:29:16.959Z,40.70
2019-02-24T17:31:46.623Z,40.30
2019-02-24T17:34:16.647Z,40.50
2019-02-24T17:36:46.607Z,39.30
2019-02-24T17:39:16.346Z,39.50
2019-02-24T17:41:46.105Z,38.40
2019-02-24T17:44:15.936Z,38.80
2019-02-24T17:46:45.711Z,38.90
2019-02-24T17:49:15.703Z,39.80
2019-02-24T17:51:45.795Z,40.60
2019-02-24T17:54:16.006Z,41.40
2019-02-24T17:56:46.388Z,42.10
2019-02-24T18:00:09.969Z,42.60
2019-02-24T18:03:11.062Z,42.80
2019-02-24T18:05:42.155Z,42.90
2019-02-24T18:08:12.026Z,43.70
2019-02-24T18:10:43.192Z,44.30
2019-02-24T18:13:18.907Z,44.70
2019-02-24T18:15:51.851Z,44.10
2019-02-24T18:18:21.612Z,44.10
2019-02-24T18:20:51.121Z,44.90
2019-02-24T18:23:20.658Z,46.10
2019-02-24T18:25:50.201Z,46.30
2019-02-24T18:28:19.719Z,48.00
2019-02-24T18:30:49.321Z,48.80
2019-02-24T18:33:18.862Z,49.10
2019-02-24T18:35:48.361Z,48.20
2019-02-24T18:38:18.009Z,48.50
2019-02-24T18:40:47.681Z,49.50
2019-02-24T18:43:17.412Z,49.90
2019-02-24T18:45:46.933Z,49.70
2019-02-24T18:48:16.489Z,50.00
2019-02-24T18:50:46.003Z,49.90
2019-02-24T18:53:15.658Z,50.10
2019-02-24T18:55:45.562Z,49.30
2019-02-24T18:58:15.051Z,49.10
2019-02-24T19:00:44.932Z,49.20
2019-02-24T19:03:14.446Z,48.90
2019-02-24T19:05:44.075Z,49.50
2019-02-24T19:08:15.285Z,50.20
2019-02-24T19:10:44.785Z,51.00
2019-02-24T19:13:14.274Z,51.40
2019-02-24T19:15:43.857Z,51.60
2019-02-24T19:18:13.444Z,51.80
2019-02-24T19:20:42.858Z,52.00
2019-02-24T19:23:12.534Z,52.40
2019-02-24T19:25:59.987Z,51.50
2019-02-24T19:28:29.647Z,50.60
2019-02-24T19:30:59.148Z,50.80
2019-02-24T19:33:28.639Z,51.10
2019-02-24T19:35:58.238Z,51.50
2019-02-24T19:38:27.800Z,52.60
2019-02-24T19:40:57.260Z,52.60
2019-02-24T19:43:26.912Z,52.90
2019-02-24T19:45:56.461Z,53.30
2019-02-24T19:48:26.610Z,53.40
2019-02-24T19:50:56.239Z,53.30
2019-02-24T19:53:25.914Z,53.40
2019-02-24T19:55:55.373Z,53.80
2019-02-24T19:58:24.848Z,54.30
2019-02-24T20:00:55.348Z,54.20
2019-02-24T20:03:24.811Z,54.20
2019-02-24T20:05:54.609Z,53.50
2019-02-24T20:08:41.815Z,52.50
2019-02-24T20:11:11.341Z,51.60
2019-02-24T20:13:40.878Z,51.40
2019-02-24T20:16:10.278Z,52.10
2019-02-24T20:18:39.722Z,53.20
2019-02-24T20:21:09.176Z,54.00
2019-02-24T20:23:38.709Z,56.20
2019-02-24T20:26:08.157Z,56.10
2019-02-24T20:28:37.618Z,58.80
2019-02-24T20:31:07.426Z,58.50
2019-02-24T20:33:36.991Z,60.30
2019-02-24T20:36:06.460Z,59.20
2019-02-24T20:38:36.105Z,60.30
2019-02-24T20:41:05.544Z,58.50
2019-02-24T20:43:34.951Z,58.50
2019-02-24T20:46:04.458Z,56.60
2019-02-24T20:48:33.952Z,55.40
2019-02-24T20:51:03.427Z,54.50
2019-02-24T20:53:32.893Z,53.00
2019-02-24T20:56:02.762Z,52.90
2019-02-24T20:58:32.209Z,52.90
2019-02-24T21:01:01.797Z,52.30
2019-02-24T21:03:31.215Z,52.60
2019-02-24T21:06:18.460Z,52.60
2019-02-24T21:08:47.852Z,52.10
2019-02-24T21:11:17.545Z,51.90
2019-02-24T21:13:46.988Z,52.00
2019-02-24T21:16:16.413Z,52.20
2019-02-24T21:18:46.335Z,52.10
2019-02-24T21:21:15.717Z,52.80
2019-02-24T21:23:45.180Z,52.20
2019-02-24T21:26:14.708Z,53.20
2019-02-24T21:28:44.190Z,51.80
2019-02-24T21:31:13.522Z,52.10
2019-02-24T21:33:43.036Z,52.80
2019-02-24T21:36:12.561Z,52.90
2019-02-24T21:38:41.987Z,53.50
2019-02-24T21:41:11.358Z,54.40
2019-02-24T21:43:40.746Z,54.20
2019-02-24T21:46:10.143Z,54.10
2019-02-24T21:48:39.688Z,54.80
2019-02-24T21:51:09.102Z,55.90
2019-02-24T21:53:38.567Z,56.90
2019-02-24T21:56:07.977Z,57.50
2019-02-24T21:58:37.424Z,57.70
2019-02-24T22:01:07.264Z,57.90
2019-02-24T22:03:36.925Z,56.50
2019-02-24T22:06:06.401Z,55.70
2019-02-24T22:08:35.852Z,52.80
2019-02-24T22:11:05.269Z,53.80
2019-02-24T22:13:34.713Z,55.30
2019-02-24T22:16:04.151Z,55.20
2019-02-24T22:18:33.522Z,56.40
2019-02-24T22:21:02.878Z,56.30
2019-02-24T22:23:32.239Z,55.90
2019-02-24T22:26:01.752Z,54.70
2019-02-24T22:28:31.096Z,55.80
2019-02-24T22:31:00.476Z,56.00
2019-02-24T22:33:29.814Z,55.40
2019-02-24T22:35:59.184Z,55.40
2019-02-24T22:38:28.857Z,55.30
2019-02-24T22:40:58.192Z,55.70
2019-02-24T22:43:27.566Z,56.50
2019-02-24T22:45:56.934Z,56.90
2019-02-24T22:48:26.357Z,57.90
2019-02-24T22:50:55.965Z,58.10
2019-02-24T22:53:25.454Z,56.40
2019-02-24T22:55:54.802Z,59.70
2019-02-24T22:58:24.123Z,59.70
2019-02-24T23:01:11.523Z,57.80
2019-02-24T23:03:42.764Z,56.80
2019-02-24T23:06:12.292Z,56.40
2019-02-24T23:08:41.652Z,55.20
2019-02-24T23:11:11.238Z,55.80
2019-02-24T23:13:40.637Z,55.40
2019-02-24T23:16:10.022Z,55.10
2019-02-24T23:18:39.793Z,53.60
2019-02-24T23:21:09.121Z,52.00
2019-02-24T23:23:38.472Z,52.40
2019-02-24T23:26:07.836Z,54.30
2019-02-24T23:28:37.247Z,53.60
2019-02-24T23:31:06.601Z,53.90
2019-02-24T23:33:36.295Z,53.70
2019-02-24T23:36:05.663Z,54.60
2019-02-24T23:38:35.060Z,54.50
2019-02-24T23:41:04.389Z,55.00
2019-02-24T23:43:33.914Z,54.90
2019-02-24T23:46:03.235Z,56.50
2019-02-24T23:48:32.604Z,58.80
2019-02-24T23:51:01.930Z,59.50
2019-02-24T23:53:31.251Z,58.70
2019-02-24T23:56:00.600Z,58.80
2019-02-24T23:58:30.216Z,60.50
